Date,TemperatureHighF,TemperatureAvgF,TemperatureLowF,DewpointHighF,DewpointAvgF,DewpointLowF,HumidityHigh,HumidityAvg,HumidityLow,PressureMaxIn,PressureMinIn,WindSpeedMaxMPH,WindSpeedAvgMPH,GustSpeedMaxMPH,PrecipitationSumIn
2013-1-1,37.5,33.9,31.1,36.7,33.7,30.9,100,99,97,30.51,30.38,1,0,7,0.00
2013-1-2,40.5,35.3,32.7,37.5,34.3,32.2,100,96,87,30.38,30.22,1,0,5,0.00
2013-1-3,41.2,35.8,31.5,37.6,34.4,31.1,100,95,84,30.21,30.08,2,0,8,0.10
2013-1-4,43.0,40.7,37.2,42.9,40.6,36.7,100,100,98,30.30,30.13,1,0,5,0.15
2013-1-5,46.6,43.0,40.3,42.6,41.0,40.3,100,93,80,30.18,30.07,3,2,10,0.40
2013-1-6,42.2,40.4,38.9,41.1,39.4,37.9,98,96,94,30.13,29.99,3,2,10,0.59
2013-1-7,41.9,39.8,36.5,41.9,39.5,36.5,100,99,96,30.09,29.79,3,2,11,0.99
2013-1-8,46.0,40.4,36.6,46.0,40.1,36.6,100,99,95,30.14,29.62,5,2,13,1.02
2013-1-9,117.4,35.3,-53.5,99.9,30.7,-99.9,100,92,86,29.89,29.64,2,0,9,0.02
2013-1-10,40.6,36.7,31.2,37.0,33.1,26.5,100,87,68,30.14,29.90,2,1,9,0.04
2013-1-11,36.7,31.7,28.1,26.7,22.8,19.1,85,70,50,30.31,30.15,2,1,11,0.00
2013-1-12,35.1,30.5,27.1,25.4,23.0,21.6,82,74,61,30.42,30.32,2,0,7,0.00
2013-1-13,32.5,28.9,25.8,26.0,23.1,21.0,84,79,75,30.48,30.43,1,0,6,0.00
2013-1-14,34.1,32.4,29.3,32.4,29.9,23.0,95,90,77,30.57,30.46,1,0,5,0.01
2013-1-15,38.0,35.6,33.8,34.0,32.5,31.0,93,89,82,30.71,30.58,1,0,4,0.00
2013-1-16,36.8,35.0,32.0,31.8,30.9,29.7,93,85,81,30.68,30.54,0,0,6,0.00
2013-1-17,144.0,30.7,-145.1,99.9,25.7,-99.9,96,88,80,30.54,30.29,1,0,6,0.00
2013-1-18,40.7,35.8,32.1,37.7,34.3,31.3,98,94,89,30.34,30.27,2,0,6,0.00
2013-1-19,40.7,35.7,31.6,39.1,34.8,30.8,100,97,94,30.40,30.34,1,0,6,0.00
2013-1-20,37.1,34.9,32.4,37.0,34.5,31.9,100,98,95,30.40,30.29,1,0,6,0.00
2013-1-21,34.2,30.8,27.7,33.9,30.6,27.5,100,99,98,30.29,30.13,0,0,5,0.00
2013-1-22,37.8,33.0,29.5,37.0,32.9,29.3,100,100,97,30.14,29.93,0,0,6,0.00
2013-1-23,43.8,40.5,37.8,42.7,38.9,34.6,99,94,86,30.05,29.81,2,1,7,0.64
2013-1-24,43.1,40.7,38.6,40.4,38.8,36.0,99,93,78,30.18,30.02,1,0,5,0.21
2013-1-25,47.9,44.1,41.0,43.0,40.9,38.6,97,89,77,30.05,29.89,3,1,9,0.07
2013-1-26,45.7,41.6,38.6,40.2,38.7,36.9,96,90,74,30.00,29.86,3,1,9,0.21
2013-1-27,40.1,38.6,37.8,39.4,38.1,37.1,98,98,96,30.01,29.94,1,0,5,0.19
2013-1-28,39.9,38.1,35.5,38.5,36.9,35.0,99,95,87,30.01,29.95,2,1,13,0.04
2013-1-29,41.0,39.6,38.0,39.4,38.1,36.4,98,94,87,30.29,30.01,3,0,13,0.10
2013-1-30,41.6,40.8,40.0,41.6,40.6,39.5,100,99,98,30.36,30.28,1,0,6,0.01
2013-1-31,45.5,43.3,41.1,45.4,43.3,41.1,100,100,99,30.36,30.27,2,1,6,0.21
2013-2-1,47.2,43.4,40.0,46.0,42.8,39.2,100,98,92,30.43,30.32,2,0,7,0.02
2013-2-2,40.6,38.3,36.4,40.6,37.9,35.9,100,99,95,30.42,30.25,1,0,6,0.00
2013-2-3,42.2,40.5,37.6,42.1,40.0,37.6,100,98,94,30.29,30.17,2,1,11,0.13
2013-2-4,45.6,43.6,42.2,43.1,42.2,40.7,100,95,83,30.16,29.85,2,2,8,0.06
2013-2-5,47.3,43.8,41.9,43.6,42.4,40.5,98,95,81,29.84,29.76,3,2,11,0.41
2013-2-6,45.0,42.5,41.2,42.0,40.8,38.2,98,94,77,30.00,29.77,5,3,19,0.34
2013-2-7,47.7,42.3,35.9,41.4,38.0,34.1,93,85,68,30.18,29.74,6,2,18,0.14
2013-2-8,42.3,37.8,34.0,37.8,35.1,32.6,96,90,81,30.29,30.19,2,0,10,0.00
2013-2-9,41.6,39.8,38.7,39.4,37.4,35.2,96,91,87,30.35,30.25,1,0,6,0.01
2013-2-10,43.5,38.9,34.1,39.4,36.1,32.2,94,90,79,30.38,30.31,4,1,11,0.00
2013-2-11,41.9,40.4,39.4,41.4,39.5,38.4,98,96,94,30.34,30.31,1,0,6,0.04
2013-2-12,45.6,43.3,40.7,43.7,42.3,39.9,99,96,92,30.36,30.21,0,0,0,0.05
2013-2-13,46.3,43.2,40.6,43.5,40.5,36.7,95,90,84,30.46,30.22,2,0,8,0.00
2013-2-14,44.5,42.4,40.7,43.2,40.6,37.9,96,93,85,30.58,30.47,1,0,7,0.09
2013-2-15,48.8,43.1,38.4,42.9,40.6,37.1,96,91,79,30.58,30.19,2,0,7,0.01
2013-2-16,50.3,44.4,38.5,46.3,41.7,36.3,100,91,76,30.17,30.06,3,1,12,0.14
2013-2-17,43.1,40.7,38.1,38.5,36.7,34.4,94,86,74,30.22,30.13,2,0,9,0.00
2013-2-18,41.8,39.7,37.6,37.8,35.8,34.1,96,86,74,30.11,29.78,3,2,10,0.16
2013-2-19,48.1,42.4,37.1,39.7,36.3,33.2,89,80,66,29.98,29.77,3,1,17,0.00
2013-2-20,39.5,37.6,36.3,35.9,33.9,31.8,92,86,76,30.01,29.99,2,1,8,0.03
2013-2-21,41.5,39.9,37.2,40.6,39.0,36.4,98,97,95,30.01,29.95,0,0,0,0.00
2013-2-22,43.6,40.1,37.8,43.1,38.8,36.6,100,95,80,29.99,29.58,2,0,10,0.03
2013-2-23,46.5,40.7,36.3,38.9,35.4,31.3,94,82,58,30.31,29.83,4,1,18,0.00
2013-2-24,40.9,39.8,37.9,39.4,37.8,35.8,96,93,82,30.32,29.89,3,2,9,0.17
2013-2-25,46.6,41.7,37.2,39.7,36.2,31.9,97,82,58,30.22,29.76,5,2,22,0.03
2013-2-26,40.7,39.1,37.1,38.3,35.7,32.2,94,88,81,30.32,30.19,2,1,8,0.03
2013-2-27,43.6,40.0,37.1,39.9,37.7,36.0,97,92,75,30.30,30.16,2,1,8,0.02
2013-2-28,46.6,40.5,36.2,45.8,40.0,35.4,100,98,96,30.28,30.20,3,1,10,0.01
2013-3-1,49.6,48.5,46.4,49.6,48.5,45.8,100,100,97,30.26,30.22,3,2,12,0.13
2013-3-2,49.2,45.9,39.7,49.2,45.3,36.7,100,97,89,30.23,30.00,3,2,15,0.02
2013-3-3,46.5,40.8,35.0,38.0,34.9,31.6,90,80,70,30.30,30.11,4,2,14,0.00
2013-3-4,47.8,41.0,34.3,40.2,34.6,27.1,94,79,49,30.31,29.99,3,1,9,0.00
2013-3-5,45.8,41.5,38.9,38.5,33.0,30.4,76,72,65,29.99,29.81,2,1,8,0.00
2013-3-24,50.5,44.3,37.8,36.7,33.7,31.3,85,67,55,30.31,30.14,3,1,8,0.00
2013-3-25,51.2,47.5,41.1,41.0,37.1,33.8,77,67,56,30.13,29.98,4,2,11,0.00
2013-3-26,53.0,47.2,41.7,44.4,38.5,34.3,81,72,63,30.03,29.98,3,1,9,0.00
2013-3-27,55.0,48.9,42.4,47.5,41.2,37.0,81,75,68,30.01,29.96,3,1,12,0.01
2013-3-28,57.2,51.5,46.0,46.8,43.1,40.5,81,73,62,30.14,30.01,3,1,11,0.03
2013-3-29,56.9,50.2,45.1,48.3,44.3,40.3,87,80,73,30.27,30.15,3,1,11,0.00
2013-3-30,58.3,51.4,44.2,51.0,45.4,41.5,90,80,70,30.28,30.12,2,1,7,0.00
2013-3-31,61.2,53.6,45.4,51.4,44.4,40.8,84,72,55,30.11,29.93,2,1,7,0.00
2013-4-1,62.2,55.0,48.3,50.3,45.7,41.4,82,71,55,30.11,29.96,3,2,11,0.00
2013-4-2,54.5,52.2,50.1,47.4,45.8,43.3,84,79,70,30.20,30.12,4,2,14,0.00
2013-4-3,57.1,50.9,44.8,48.3,44.6,41.8,89,79,68,30.19,30.00,4,1,11,0.00
2013-4-4,52.8,51.0,49.0,52.1,47.8,44.1,100,89,80,29.98,29.59,0,0,4,0.78
2013-4-5,51.6,49.7,47.1,51.4,49.5,47.1,100,99,96,29.83,29.65,0,0,0,0.55
2013-4-6,51.8,47.8,44.5,48.2,45.2,41.9,100,91,72,29.87,29.65,0,0,0,0.33
2013-4-7,48.4,45.1,42.4,45.9,43.2,40.6,98,93,84,29.84,29.57,0,0,0,0.04
2013-4-8,55.4,47.9,42.6,48.9,45.2,42.1,99,91,78,30.20,29.86,0,0,0,0.00
2013-4-9,49.1,47.4,45.4,47.1,45.4,43.5,100,93,85,30.33,30.18,0,0,0,0.11
2013-4-10,57.4,50.3,46.1,52.1,47.6,45.3,100,91,64,30.16,29.85,0,0,0,0.92
2013-4-11,54.3,47.5,42.4,47.2,41.2,36.3,98,79,62,30.25,30.16,0,0,0,0.00
2013-4-12,43.8,41.9,38.8,39.8,37.7,36.5,96,85,78,30.16,29.79,0,0,0,0.35
2013-4-13,46.9,41.9,36.0,41.8,36.9,29.7,93,83,73,29.96,29.61,0,0,0,0.01
2013-4-14,50.1,43.1,37.1,41.8,37.9,35.2,94,82,67,30.00,29.92,0,0,0,0.00
2013-4-15,50.9,46.2,41.7,46.0,40.4,36.6,90,80,63,30.18,29.93,0,0,0,0.03
2013-4-16,56.2,47.4,39.7,44.6,36.9,30.1,82,68,39,30.38,30.20,0,0,0,0.00
2013-4-17,56.5,49.6,43.6,45.7,39.6,33.8,91,69,53,30.42,30.37,0,0,0,0.01
2013-4-18,47.3,45.1,43.3,46.4,45.0,43.3,100,100,93,30.42,30.19,0,0,0,0.82
2013-4-19,52.9,49.0,46.1,51.8,48.8,46.1,100,99,95,30.17,30.06,0,0,0,0.53
2013-4-20,57.2,48.9,43.9,50.4,47.1,43.9,100,94,75,30.22,30.11,0,0,0,0.11
2013-4-21,54.3,45.7,40.6,44.6,42.4,35.5,98,89,69,30.39,30.19,0,0,0,0.05
2013-4-22,57.4,46.6,37.3,47.0,38.2,30.8,83,73,47,30.55,30.40,0,0,0,0.00
2013-4-23,60.1,50.5,42.7,43.3,38.4,35.0,77,64,42,30.42,30.28,0,0,0,0.00
2013-4-24,59.8,51.9,44.6,48.4,42.2,36.7,79,70,59,30.33,30.07,0,0,0,0.00
2013-4-25,63.8,54.4,45.0,51.9,44.1,39.1,82,69,57,30.12,30.04,0,0,0,0.00
2013-4-26,60.4,54.9,48.9,49.9,44.5,39.4,82,69,49,30.24,30.13,0,0,0,0.00
2013-4-27,55.7,51.4,48.6,51.0,46.7,42.0,98,85,66,30.18,30.11,0,0,0,0.12
2013-4-28,55.3,47.4,40.7,47.1,41.6,38.0,98,82,54,30.18,30.14,0,0,0,0.00
2013-4-29,45.9,44.0,41.0,44.3,36.7,29.6,94,76,59,29.98,29.87,0,0,0,0.01
2013-4-30,54.3,45.6,37.0,38.7,32.7,28.5,81,61,42,30.42,30.10,0,0,0,0.00
2013-5-1,58.0,48.6,39.3,44.9,35.6,29.7,78,62,38,30.60,30.43,0,0,0,0.00
2013-5-2,57.6,52.1,45.1,49.3,42.6,35.6,81,70,62,30.56,30.41,0,0,0,0.00
2013-5-3,67.4,55.5,45.6,53.3,47.3,41.6,89,75,58,30.42,30.26,0,0,0,0.00
2013-5-4,76.0,61.9,50.3,54.0,47.6,42.1,82,61,35,30.29,30.04,0,0,0,0.00
2013-5-5,81.9,67.4,55.6,55.9,48.2,42.5,69,51,38,30.04,29.80,0,0,0,0.00
2013-5-6,77.8,67.1,58.7,54.2,47.9,42.3,67,51,34,29.88,29.77,0,0,4,0.00
2013-5-7,71.7,63.0,55.8,58.3,52.2,47.0,78,68,58,29.96,29.81,1,0,7,0.00
2013-5-8,69.7,59.6,54.8,58.5,53.2,49.7,90,80,65,30.14,29.98,1,0,7,0.00
2013-5-9,67.9,59.7,52.2,57.4,53.5,50.4,94,81,68,30.23,30.12,1,0,5,0.00
2013-5-10,71.0,60.4,53.8,58.0,53.8,51.5,94,80,62,30.22,30.13,1,0,5,0.00
2013-5-11,68.8,61.9,57.3,59.1,55.5,50.0,100,80,66,30.17,30.00,0,0,5,0.35
2013-5-12,63.5,59.5,57.9,61.3,59.1,57.9,100,99,87,30.07,30.01,0,0,4,0.43
2013-5-13,58.1,54.2,50.3,55.8,53.5,49.1,100,97,91,30.13,29.91,1,0,7,0.24
2013-5-14,60.0,52.2,47.2,48.7,47.3,44.3,97,84,56,30.21,30.14,1,0,7,0.02
2013-5-15,50.4,50.0,49.5,47.6,46.2,45.9,90,87,85,30.14,30.11,0,0,3,0.00
2013-5-16,62.9,57.1,50.8,55.9,52.5,48.6,98,85,72,30.03,29.89,1,0,7,0.02
2013-5-17,58.8,53.8,50.5,54.3,51.8,48.4,99,93,81,30.03,29.93,0,0,5,0.07
2013-5-18,59.8,54.0,51.3,54.0,51.5,48.8,100,92,74,30.26,30.04,2,0,7,0.22
2013-5-19,64.6,55.2,48.8,54.6,50.4,46.5,94,84,68,30.39,30.27,1,0,6,0.00
2013-5-20,62.4,55.1,47.5,54.1,48.8,44.7,93,80,67,30.35,29.92,1,0,13,0.00
2013-5-21,53.5,49.8,47.7,50.3,48.6,47.0,100,96,81,29.90,29.78,0,0,6,0.32
2013-5-22,57.4,51.4,45.2,50.9,48.4,45.2,100,90,76,29.95,29.84,1,0,25,0.18
2013-5-23,58.0,53.7,43.2,54.1,51.6,42.9,100,93,73,30.01,29.94,2,0,8,0.10
2013-5-24,56.1,56.1,56.1,54.1,54.1,54.1,93,93,93,30.01,30.01,0,0,0,0.00
2013-5-25,56.1,56.1,56.1,54.1,54.1,54.1,93,93,93,30.01,30.01,0,0,0,0.00
2013-5-26,56.1,56.1,56.1,54.1,54.1,54.1,93,93,93,30.01,30.01,0,0,0,0.00
2013-5-27,56.1,56.1,56.1,54.1,54.1,54.1,93,93,93,30.01,30.01,0,0,0,0.00
2013-5-28,56.1,56.1,56.1,54.1,54.1,54.1,93,93,93,30.01,30.01,0,0,0,0.00
2013-5-29,56.1,56.1,56.1,54.1,54.1,54.1,93,93,93,30.01,30.01,0,0,0,0.00
2013-5-30,56.1,56.1,56.1,54.1,54.1,54.1,93,93,93,30.01,30.01,0,0,0,0.00
2013-5-31,56.1,56.1,56.1,54.1,54.1,54.1,93,93,93,30.01,30.01,0,0,0,0.00
2013-6-1,63.8,55.9,50.9,52.7,49.8,45.6,94,81,61,30.26,30.09,0,0,4,0.01
2013-6-2,67.6,55.4,48.5,56.5,50.5,46.6,95,84,66,30.09,30.04,1,0,7,0.00
2013-6-3,68.2,58.5,51.0,55.2,52.2,48.9,94,80,60,30.12,30.07,1,0,6,0.00
2013-6-4,72.5,61.8,52.9,56.9,52.7,45.7,92,73,56,30.16,30.04,1,0,7,0.00
2013-6-5,71.9,63.9,59.0,62.3,55.6,46.5,88,75,61,30.11,30.03,1,0,7,0.00
2013-6-6,73.0,63.5,54.2,59.0,54.0,48.0,93,73,46,30.07,30.00,1,0,5,0.01
2013-6-7,66.2,59.9,53.8,57.3,53.8,49.8,96,81,69,30.12,29.99,1,0,6,0.02
2013-6-8,61.1,55.8,53.6,54.3,50.8,48.7,88,83,71,30.17,30.11,1,0,5,0.00
2013-6-9,67.8,58.3,52.2,54.2,51.3,47.4,94,79,53,30.10,30.03,1,0,7,0.00
2013-6-10,70.3,57.4,48.7,58.8,54.7,45.4,100,92,65,30.26,29.90,3,0,9,0.06
2013-6-11,57.5,57.5,57.5,57.5,57.5,57.5,100,100,100,29.95,29.95,0,0,0,0.24
2013-6-12,57.5,57.5,57.5,57.5,57.5,57.5,100,100,100,29.95,29.95,0,0,0,0.03
2013-6-16,69.2,66.8,57.5,57.8,56.4,54.8,100,70,65,30.06,29.95,1,0,5,0.00
2013-6-17,72.6,65.5,61.2,60.8,57.4,54.5,86,75,65,30.07,29.91,1,0,8,0.00
2013-6-18,67.5,60.7,56.7,58.2,54.5,50.0,97,81,62,29.97,29.91,1,0,6,0.04
2013-6-19,64.1,58.9,54.6,58.8,54.4,49.9,96,85,73,29.96,29.89,0,0,4,0.04
2013-6-20,57.5,56.2,54.8,56.3,55.4,54.5,100,97,94,30.08,29.87,0,0,4,0.45
2013-6-21,62.7,56.7,52.5,58.2,54.9,52.5,100,94,82,30.17,30.08,1,0,5,0.04
2013-6-22,212.5,53.7,57.1,99.9,45.3,-99.9,97,81,72,30.14,29.90,1,0,5,0.00
2013-6-23,65.9,61.4,55.2,63.7,59.0,53.7,100,92,84,29.89,29.64,0,0,3,0.12
2013-6-24,60.1,58.6,55.5,60.1,58.5,55.5,100,100,98,29.70,29.56,1,0,6,1.18
2013-6-25,57.7,56.3,55.3,57.4,56.3,55.3,100,100,99,29.70,29.68,1,0,4,0.06
2013-6-26,65.0,60.4,56.5,63.9,59.8,56.5,100,98,87,30.07,29.84,1,0,7,0.07
2013-6-27,64.8,62.0,58.5,63.9,61.2,58.5,100,97,88,30.22,30.05,1,0,5,0.06
2013-6-28,69.0,64.7,59.7,66.4,63.3,59.7,100,95,88,30.23,30.08,0,0,3,0.06
2013-6-29,113.2,61.2,63.7,99.9,38.5,-99.9,93,67,69,30.12,30.01,1,0,3,0.08
2013-6-30,81.9,65.2,57.5,68.7,62.0,57.5,100,91,60,30.03,29.91,1,0,5,0.05
2013-7-1,73.3,73.3,73.3,59.9,59.9,59.9,63,63,63,29.91,29.91,0,0,2,0.00
2013-7-7,71.8,66.2,61.1,61.2,59.1,56.2,90,78,66,29.94,29.89,1,0,4,0.00
2013-7-8,71.6,65.4,58.8,62.9,59.1,55.3,92,80,72,30.09,29.95,1,0,4,0.00
2013-7-9,77.3,68.6,59.9,65.5,60.1,56.2,92,75,60,30.12,29.99,1,0,4,0.00
2013-7-10,67.3,64.5,62.5,60.6,59.5,58.9,88,84,79,30.00,30.00,0,0,0,0.00
2013-7-11,67.5,61.0,55.3,53.1,50.6,48.1,84,69,58,30.06,29.93,1,0,6,0.00
2013-7-12,67.8,60.9,54.3,58.5,52.4,48.2,86,74,59,30.07,30.01,3,0,227,0.00
2013-7-13,68.0,59.0,53.7,57.5,52.2,49.4,89,78,67,30.21,30.09,1,0,4,0.00
2013-7-21,72.1,64.7,57.0,63.0,59.4,55.3,97,84,70,29.98,29.91,1,0,5,0.00
2013-7-22,73.3,65.0,58.5,64.4,60.4,57.2,97,86,70,30.05,29.93,1,0,5,0.01
2013-7-23,75.5,67.3,59.8,63.2,59.0,55.9,92,76,55,30.08,29.98,1,0,4,0.00
2013-7-24,77.0,68.7,60.1,65.7,59.7,54.7,98,74,59,30.06,30.00,1,0,4,0.00
2013-7-25,75.8,67.2,58.6,65.3,59.0,52.3,95,76,62,30.11,30.02,1,0,3,0.00
2013-7-26,72.9,66.0,59.4,63.3,59.1,53.8,94,79,66,30.15,30.08,1,0,6,0.00
2013-7-27,70.2,64.3,59.9,63.1,58.4,51.3,97,82,68,30.14,30.00,1,0,5,0.00
2013-7-28,71.5,64.3,57.4,63.6,57.8,52.0,90,80,65,30.00,29.94,1,0,5,0.00
2013-7-29,70.6,64.9,58.4,62.9,59.0,55.5,91,82,72,30.00,29.93,1,0,5,0.00
2013-7-30,74.5,67.5,59.7,64.5,60.7,56.8,97,79,66,30.13,30.00,1,0,5,0.00
2013-7-31,72.9,67.2,60.8,64.4,60.7,57.8,96,80,67,30.11,30.00,1,0,5,0.00
2013-8-1,73.0,65.6,60.8,65.0,61.0,57.5,100,85,72,30.04,30.00,1,0,7,0.02
2013-8-2,60.3,59.5,58.9,60.3,59.5,58.9,100,100,99,30.13,30.03,0,0,5,0.02
2013-8-3,67.1,62.7,59.1,64.7,61.8,59.1,100,97,90,30.15,30.07,1,0,4,0.01
2013-8-4,74.4,65.6,58.9,65.7,62.4,58.9,100,90,74,30.08,29.96,1,0,6,0.00
2013-8-5,79.2,68.2,60.3,65.1,61.6,57.7,100,81,54,30.02,29.94,1,0,6,0.01
2013-8-6,79.5,68.2,58.7,63.5,59.7,55.6,97,75,55,30.01,29.93,1,0,5,0.00
2013-8-7,79.8,70.5,60.7,64.2,59.7,56.2,88,69,58,30.01,29.94,1,0,5,0.00
2013-8-8,79.5,68.0,60.3,67.1,61.6,57.6,100,81,63,30.03,29.93,1,0,6,0.00
2013-8-9,78.7,68.3,60.2,68.1,63.5,59.3,100,85,65,29.96,29.82,1,0,5,0.00
2013-8-10,78.2,69.7,65.0,68.4,63.6,60.1,90,81,68,29.99,29.85,1,0,5,0.00
2013-8-11,70.6,66.0,61.4,63.6,60.2,56.5,100,82,73,30.07,29.98,1,0,7,0.00
2013-8-12,75.8,66.3,61.8,67.3,60.8,57.2,90,83,68,30.07,30.01,1,0,6,0.00
2013-8-13,75.4,66.6,59.4,64.1,59.9,52.9,99,80,62,30.11,29.95,2,0,6,0.00
2013-8-14,63.8,62.7,62.2,54.5,54.0,53.0,76,73,68,29.95,29.93,0,0,3,0.00
2013-8-15,69.5,66.6,63.8,65.8,63.9,61.9,97,91,78,29.99,29.93,0,0,7,0.00
2013-8-16,74.2,67.9,63.4,68.0,64.0,60.5,94,88,77,30.02,29.97,1,0,5,0.02
2013-8-17,71.8,68.0,65.4,64.5,62.2,60.5,93,82,72,30.06,29.98,1,0,7,0.00
2013-8-18,69.3,64.4,61.7,62.5,60.1,58.8,94,86,75,30.12,30.05,0,0,6,0.00
2013-8-19,72.6,64.7,60.3,60.7,58.9,57.5,97,82,62,30.11,30.05,1,0,6,0.00
2013-8-20,76.0,63.8,56.2,61.2,57.6,51.7,98,82,58,30.18,30.10,1,0,6,0.00
2013-8-21,79.5,66.1,56.1,61.4,56.3,50.4,92,72,50,30.11,29.95,1,0,6,0.00
2013-8-22,80.9,69.1,59.8,61.7,57.4,53.2,91,68,47,29.97,29.80,1,0,5,0.00
2013-8-23,72.5,67.7,63.6,61.0,57.2,52.2,88,69,61,29.89,29.80,1,0,11,0.00
2013-8-24,72.2,63.8,59.0,63.5,60.2,57.3,100,89,67,29.91,29.87,2,0,10,0.03
2013-8-25,72.7,64.2,56.9,59.5,56.7,54.9,95,78,57,29.95,29.86,1,0,6,0.00
2013-8-26,72.1,64.9,60.8,63.9,59.4,55.0,100,83,65,29.92,29.85,1,0,7,0.01
2013-8-27,71.2,65.3,60.4,65.1,60.9,57.5,100,86,77,29.96,29.81,0,0,6,0.14
2013-8-28,71.5,64.8,60.8,66.4,63.2,60.8,100,95,82,29.92,29.83,0,0,3,0.29
2013-8-29,64.9,63.8,63.2,64.7,63.7,63.2,100,100,97,29.90,29.87,0,0,3,0.45
2013-8-30,67.6,60.3,42.4,64.9,59.6,42.4,100,97,83,30.18,29.96,1,0,6,0.06
2013-8-31,74.6,62.8,54.8,65.8,59.1,53.7,100,88,68,30.11,29.85,1,0,5,0.00
2013-9-1,76.5,66.2,58.2,66.7,61.6,57.6,100,86,66,29.89,29.80,1,0,227,0.00
2013-9-2,74.5,66.3,62.2,69.1,64.3,60.5,100,93,82,29.94,29.85,1,0,6,0.01
2013-9-3,66.3,30.5,-144.7,99.9,6.7,-99.9,100,74,96,30.04,29.94,0,0,4,0.06
2013-9-4,69.6,57.1,-69.8,67.5,56.2,-70.4,100,97,90,30.07,30.00,0,0,5,0.00
2013-9-5,64.3,61.7,58.7,63.2,61.4,58.7,100,99,95,30.05,29.91,0,0,5,0.15
2013-9-6,66.1,61.6,60.1,64.6,61.5,60.1,100,100,95,30.04,29.91,0,0,4,0.00
2013-9-30,51.6,49.2,48.0,51.6,49.1,47.8,100,100,98,29.84,29.32,0,0,6,0.13
2013-10-1,51.5,47.5,45.4,49.2,47.2,45.4,100,99,91,30.08,29.86,0,0,4,0.19
2013-10-2,48.7,47.5,46.6,48.7,47.5,46.6,100,100,100,30.14,30.06,0,0,3,0.44
2013-10-3,55.8,47.9,41.4,51.0,46.6,41.4,100,95,84,30.45,30.19,0,0,4,0.01
2013-10-4,54.4,49.4,44.0,51.0,47.5,43.9,100,93,83,30.47,30.36,0,0,1,0.00
2013-10-5,61.1,56.1,51.3,58.9,52.5,46.5,100,88,75,30.37,30.16,2,0,227,0.00
2013-10-6,70.2,58.7,51.3,57.5,53.4,49.9,100,85,54,30.15,29.81,5,0,227,0.08
2013-10-7,57.9,53.2,51.0,54.3,52.3,51.0,100,97,84,29.92,29.82,0,0,4,0.29
2013-10-8,55.8,50.4,45.6,51.1,46.1,42.3,100,85,75,30.10,29.91,0,0,4,0.00
2013-10-9,47.5,45.1,43.9,44.4,43.2,42.7,96,93,85,30.13,30.11,0,0,0,0.00
2013-10-10,55.9,50.6,46.4,50.8,47.0,43.6,94,87,82,30.06,29.92,0,0,3,0.00
2013-10-11,51.8,47.4,43.6,49.7,45.6,43.1,100,94,83,30.15,30.07,0,0,0,0.00
2013-10-12,55.2,50.0,44.1,51.0,47.0,43.1,98,90,80,30.22,30.08,0,0,2,0.00
2013-10-13,54.6,48.3,43.3,49.2,45.2,42.2,97,89,78,30.37,30.22,0,0,0,0.00
2013-10-14,54.4,48.9,43.5,51.3,46.1,42.7,98,90,81,30.43,30.37,0,0,0,0.00
2013-10-15,53.6,49.0,45.9,50.7,47.2,43.8,98,94,85,30.39,30.20,0,0,0,0.00
2013-10-16,57.1,50.6,45.2,52.1,48.1,45.2,100,91,81,30.21,30.16,0,0,0,0.00
2013-10-17,51.2,48.2,45.4,50.4,47.3,44.8,100,97,90,30.29,30.20,0,0,0,0.00
2013-10-18,47.9,44.6,40.7,47.9,44.6,40.7,100,100,100,30.26,30.17,0,0,0,0.00
2013-10-19,47.9,45.3,41.8,47.9,45.3,41.8,100,100,100,30.21,30.16,0,0,0,0.00
2013-10-20,49.4,47.6,46.1,49.2,47.5,46.1,100,100,97,30.22,30.16,0,0,0,0.00
2013-10-21,49.0,47.3,43.8,49.0,47.3,43.8,100,100,100,30.19,30.11,0,0,0,0.00
2013-10-22,49.7,46.1,42.3,49.7,46.1,42.3,100,100,100,30.14,30.04,0,0,0,0.00
2013-10-23,48.4,46.4,43.3,48.4,46.4,43.3,100,100,100,30.07,30.04,0,0,0,0.00
2013-10-24,55.0,50.4,44.5,52.4,48.7,44.5,100,94,90,30.09,30.03,0,0,0,0.00
2013-10-25,51.3,47.6,42.9,49.9,47.3,42.9,100,99,95,30.33,30.11,0,0,0,0.00
2013-10-26,55.5,49.8,45.7,50.7,48.3,45.7,100,95,81,30.34,30.18,0,0,0,0.00
2013-10-27,57.2,51.8,46.9,51.4,46.0,35.5,100,82,53,30.16,29.96,0,0,0,0.05
2013-10-28,57.0,50.0,45.9,37.4,34.7,32.2,68,56,45,30.06,30.00,0,0,0,0.00
2013-10-29,52.9,46.5,41.7,40.3,35.6,31.8,75,66,51,30.02,29.97,0,0,0,0.00
2013-10-30,52.1,47.9,43.5,46.8,40.7,36.6,97,77,64,30.11,30.02,1,0,5,0.14
2013-10-31,49.7,48.2,46.7,49.4,48.0,46.4,100,99,97,30.24,30.08,0,0,3,0.16
2013-11-1,49.8,49.4,49.1,49.8,49.2,48.8,100,100,99,30.25,30.22,0,0,3,0.00
2013-11-2,50.4,46.1,41.0,49.7,45.8,41.0,100,99,94,29.82,29.42,1,0,227,1.65
2013-11-3,46.0,40.0,36.2,42.4,37.5,33.3,100,91,78,30.10,29.85,0,0,4,0.00
2013-11-4,44.8,40.4,35.5,38.5,35.5,30.5,98,83,57,30.19,30.08,1,0,8,0.00
2013-11-5,44.5,40.7,38.7,42.7,39.9,34.2,100,97,67,30.24,30.05,0,0,4,0.12
2013-11-6,47.9,43.9,40.3,45.1,42.7,40.3,100,96,84,30.33,30.23,0,0,2,0.00
2013-11-7,50.2,47.8,45.1,50.2,47.5,43.5,100,99,92,30.00,29.67,1,0,9,0.06
2013-11-8,50.1,46.1,41.3,46.7,44.2,41.3,100,93,83,30.15,29.91,1,0,4,0.00
2013-11-9,48.2,46.2,44.5,47.0,44.6,43.3,98,94,89,30.15,30.10,1,0,4,0.00
2013-11-10,47.5,44.5,40.8,45.5,43.1,40.0,98,95,90,30.18,30.13,2,0,2,0.00
2013-11-11,51.9,48.0,45.4,45.8,43.3,41.3,92,84,67,30.18,30.03,0,0,2,0.00
2013-11-12,55.0,51.7,48.2,52.8,50.3,43.6,100,95,76,30.29,30.00,2,0,11,0.14
2013-11-13,54.5,51.2,48.2,52.2,50.1,48.2,100,96,86,30.39,30.30,1,0,5,0.04
2013-11-14,51.9,47.5,41.6,49.7,46.0,38.2,100,95,83,30.29,30.02,0,0,4,0.03
2013-11-15,44.0,42.7,40.0,43.4,41.6,38.8,100,96,85,30.02,29.25,1,0,28,0.83
2013-11-16,42.8,39.4,36.3,42.5,38.8,36.3,100,98,89,29.68,29.28,2,0,227,0.00
2013-11-17,46.6,42.9,37.3,46.1,41.2,35.2,100,94,86,29.85,29.70,0,0,5,0.05
2013-11-18,46.2,44.4,42.4,46.2,43.9,42.4,100,98,93,29.87,29.55,0,0,3,0.35
2013-11-19,42.9,39.6,32.9,42.5,34.9,28.9,100,84,59,30.05,29.56,1,0,7,0.00
2013-11-20,39.4,33.9,30.2,31.2,29.0,27.3,90,82,68,30.51,30.10,1,0,5,0.01
2013-11-21,37.9,33.1,29.4,31.7,29.0,26.0,90,85,75,30.67,30.52,0,0,3,0.00
2013-11-22,42.7,36.0,31.3,34.7,31.0,27.9,90,82,71,30.67,30.53,0,0,3,0.00
2013-11-29,47.9,46.6,45.5,46.7,46.0,44.8,100,98,91,30.28,30.17,0,0,4,0.39
2013-11-30,45.5,44.6,43.2,45.5,44.6,43.2,100,100,100,30.30,30.17,0,0,5,0.42
2013-12-1,50.7,47.7,46.3,50.6,47.6,46.3,100,99,96,30.03,29.75,0,0,6,0.60
2013-12-2,39.9,37.3,35.0,36.3,33.7,31.5,92,87,82,29.81,29.73,1,0,7,0.00